Aviation Digital Data Service (ADDS)

Output produced by TAFs form (0151 UTC 18 October 2017)
found at http://aviationweather.gov/adds/tafs/
 
METAR text: KFFZ 180147Z 29005KT 40SM FEW100 BKN180 31/11 A2992
Conditions at: KFFZ (MESA/FALCON FLD , AZ, US) observed 0147 UTC 18 October 2017
Temperature: 31.0°C (88°F)
Dewpoint: 11.0°C (52°F) [RH = 29%]
Pressure (altimeter): 29.92 inches Hg (1013.3 mb)
Winds: from the WNW (290 degrees) at 6 MPH (5 knots; 2.6 m/s)
Visibility: 40 miles (64 km)
Ceiling: 18000 feet AGL
Clouds: few clouds at 10000 feet AGL
broken clouds at 18000 feet AGL
Weather: no significant weather observed at this time

METAR text: KIWA 180147Z VRB03KT 20SM SKC 31/08 A2992
Conditions at: KIWA (CHANDLER/MESA , AZ, US) observed 0147 UTC 18 October 2017
Temperature: 31.0°C (88°F)
Dewpoint: 8.0°C (46°F) [RH = 24%]
Pressure (altimeter): 29.92 inches Hg (1013.3 mb)
Winds: variable direction winds at 3 MPH (3 knots; 1.6 m/s)
Visibility: 20 miles (32 km)
Ceiling: at least 12,000 feet AGL
Clouds: clear skies
Weather: no significant weather observed at this time

Forecast for: KIWA (CHANDLER/MESA , AZ, US)
Text: KIWA 172320Z 1800/1824 30006KT P6SM BKN250
Forecast period: 0000 to 0400 UTC 18 October 2017
Forecast type: FROM: standard forecast or significant change
Winds: from the WNW (300 degrees) at 7 MPH (6 knots; 3.1 m/s)
Visibility: 6 or more miles (10+ km)
Ceiling: 25000 feet AGL
Clouds: broken clouds at 25000 feet AGL
Weather: no significant weather forecast for this period
Text: FM180400 12005KT P6SM SCT150 BKN250
Forecast period: 0400 to 2100 UTC 18 October 2017
Forecast type: FROM: standard forecast or significant change
Winds: from the ESE (120 degrees) at 6 MPH (5 knots; 2.6 m/s)
Visibility: 6 or more miles (10+ km)
Ceiling: 25000 feet AGL
Clouds: scattered clouds at 15000 feet AGL
broken clouds at 25000 feet AGL
Weather: no significant weather forecast for this period
Text: FM182100 29007KT P6SM FEW140 BKN250 AMD LTD TO CLD VIS AND WIND 1803/1813
Forecast period: 2100 UTC 18 October 2017 to 0000 UTC 19 October 2017
Forecast type: FROM: standard forecast or significant change
Winds: from the WNW (290 degrees) at 8 MPH (7 knots; 3.6 m/s)
Visibility: 6 or more miles (10+ km)
Ceiling: 25000 feet AGL
Clouds: few clouds at 14000 feet AGL
broken clouds at 25000 feet AGL
Weather: no significant weather forecast for this period